Time;durP1;ratioP1;P1;durP2;ratioP2;P2;SDS_P1;SDS_P2;PMS_P1;PMS_P2;Temp;Humidity;BMP_temperature;BMP_pressure;BME280_temperature;BME280_humidity;BME280_pressure;Samples;Min_cycle;Max_cycle;Signal;HPM_P1;HPM_P2
2021/11/08 00:00:55;;;;;;;16.48;10.75;;;11.00;99.90;;;;;;5050900;28;20040;-71
2021/11/08 00:03:59;;;;;;;13.88;5.93;;;11.00;99.90;;;;;;5051066;28;20064;-71
2021/11/08 00:07:04;;;;;;;9.68;4.90;;;11.00;99.90;;;;;;5050633;28;20064;-71
2021/11/08 00:10:09;;;;;;;9.90;4.47;;;11.00;99.90;;;;;;5050186;28;20052;-71
2021/11/08 00:13:13;;;;;;;10.20;5.82;;;10.90;99.90;;;;;;5050950;28;20063;-71
2021/11/08 00:22:39;;;;;;;13.05;5.90;;;10.90;99.90;;;;;;5050866;28;20399;-71
2021/11/08 00:25:44;;;;;;;10.30;5.88;;;10.90;99.90;;;;;;5050567;28;20383;-71
2021/11/08 00:28:49;;;;;;;12.38;5.15;;;10.90;99.90;;;;;;5049481;28;20064;-71
2021/11/08 00:31:54;;;;;;;11.90;5.95;;;10.80;99.90;;;;;;5050602;28;20052;-71
2021/11/08 00:34:58;;;;;;;12.05;5.75;;;10.70;99.90;;;;;;5050615;28;20048;-71
2021/11/08 00:38:02;;;;;;;11.77;5.72;;;10.70;99.90;;;;;;5049897;28;20502;-71
2021/11/08 00:41:06;;;;;;;10.48;5.35;;;10.70;99.90;;;;;;5050140;28;20044;-71
2021/11/08 00:44:11;;;;;;;10.20;5.25;;;10.70;99.90;;;;;;5050293;28;20036;-71
2021/11/08 00:47:15;;;;;;;13.00;6.72;;;10.70;99.90;;;;;;5050021;28;20059;-71
2021/11/08 00:50:19;;;;;;;9.68;6.00;;;10.80;99.90;;;;;;5049301;28;20392;-71
2021/11/08 00:53:23;;;;;;;16.08;6.60;;;10.90;99.90;;;;;;5050067;28;20431;-71
2021/11/08 00:56:28;;;;;;;12.95;6.40;;;10.90;99.90;;;;;;5050559;28;20056;-71
2021/11/08 00:59:32;;;;;;;11.75;5.50;;;10.80;99.90;;;;;;5049708;28;20044;-71
2021/11/08 01:02:36;;;;;;;13.05;6.75;;;10.80;99.90;;;;;;5050273;28;20059;-71
2021/11/08 01:05:41;;;;;;;13.07;6.57;;;10.70;99.90;;;;;;5050139;28;20214;-71
2021/11/08 01:08:46;;;;;;;11.70;6.63;;;10.60;99.90;;;;;;5049663;28;20051;-71
2021/11/08 01:11:51;;;;;;;13.55;6.22;;;10.60;99.90;;;;;;5050135;28;20064;-71
2021/11/08 01:14:56;;;;;;;14.15;6.40;;;10.50;99.90;;;;;;5050483;28;20047;-71
2021/11/08 01:18:00;;;;;;;13.85;7.20;;;10.50;99.90;;;;;;5049889;28;20052;-71
2021/11/08 01:21:06;;;;;;;12.85;7.30;;;10.50;99.90;;;;;;5050309;28;20044;-71
2021/11/08 01:24:10;;;;;;;10.55;6.25;;;10.50;99.90;;;;;;5050126;28;20048;-71
2021/11/08 01:27:15;;;;;;;11.85;7.60;;;10.60;99.90;;;;;;5050069;28;20494;-71
2021/11/08 01:30:24;;;;;;;10.10;5.97;;;10.40;99.90;;;;;;5049732;28;20048;-71
2021/11/08 01:33:29;;;;;;;12.05;5.95;;;10.30;99.90;;;;;;5049996;28;20574;-71
2021/11/08 01:36:36;;;;;;;12.93;6.55;;;10.40;99.90;;;;;;5049903;28;20048;-71
2021/11/08 01:39:43;;;;;;;12.82;7.07;;;10.50;99.90;;;;;;5049542;28;20056;-71
2021/11/08 01:42:47;;;;;;;13.80;7.57;;;10.50;99.90;;;;;;5049754;28;20052;-71
2021/11/08 01:45:51;;;;;;;21.15;7.15;;;10.60;99.90;;;;;;5049818;28;20052;-71
2021/11/08 01:48:55;;;;;;;12.80;6.60;;;10.50;99.90;;;;;;5049083;28;20510;-71
2021/11/08 01:52:00;;;;;;;11.13;6.88;;;10.50;99.90;;;;;;5049700;28;20077;-71
2021/11/08 01:55:05;;;;;;;14.80;7.25;;;10.60;99.90;;;;;;5049645;28;20403;-71
2021/11/08 01:58:10;;;;;;;14.77;6.38;;;10.60;99.90;;;;;;5048806;28;20048;-71
2021/11/08 02:01:14;;;;;;;17.50;6.88;;;10.70;99.90;;;;;;5050778;28;20036;-71
2021/11/08 02:04:18;;;;;;;13.10;5.90;;;10.60;99.90;;;;;;5053243;28;20498;-71
2021/11/08 02:07:23;;;;;;;10.75;6.10;;;10.60;99.90;;;;;;5053544;28;20491;-71
2021/11/08 02:10:27;;;;;;;12.30;6.28;;;10.50;99.90;;;;;;5052982;28;20044;-71
2021/11/08 02:13:31;;;;;;;19.48;6.97;;;10.40;99.90;;;;;;5053086;28;20051;-71
2021/11/08 02:16:37;;;;;;;13.52;6.20;;;10.40;99.90;;;;;;5053046;28;20056;-71
2021/11/08 02:19:41;;;;;;;14.52;6.70;;;10.30;99.90;;;;;;5052515;28;20056;-71
2021/11/08 02:22:46;;;;;;;17.75;7.15;;;10.30;99.90;;;;;;5052654;28;20495;-71
2021/11/08 02:25:54;;;;;;;13.82;6.57;;;10.20;99.90;;;;;;5052832;28;20521;-71
2021/11/08 02:28:58;;;;;;;14.88;6.50;;;10.20;99.90;;;;;;5052559;28;20068;-71
2021/11/08 02:32:04;;;;;;;10.30;6.38;;;10.20;99.90;;;;;;5052806;28;20514;-71
2021/11/08 02:35:11;;;;;;;14.60;6.50;;;10.20;99.90;;;;;;5052738;28;20048;-71
2021/11/08 02:38:23;;;;;;;10.80;6.93;;;10.30;99.90;;;;;;5052103;28;20036;-71
2021/11/08 02:41:28;;;;;;;15.00;8.02;;;10.20;99.90;;;;;;5052193;28;20047;-71
2021/11/08 02:44:33;;;;;;;18.80;7.45;;;10.20;99.90;;;;;;5052562;28;20044;-71
2021/11/08 02:47:40;;;;;;;14.02;7.43;;;10.20;99.90;;;;;;5052507;28;20399;-71
2021/11/08 02:50:52;;;;;;;14.32;6.80;;;10.20;99.90;;;;;;5052010;28;20419;-71
2021/11/08 02:54:12;;;;;;;19.13;7.72;;;10.20;99.90;;;;;;5052214;28;20064;-71
2021/11/08 02:57:17;;;;;;;14.65;6.60;;;10.30;99.90;;;;;;5052303;28;20044;-71
2021/11/08 03:00:28;;;;;;;12.05;7.10;;;10.30;99.90;;;;;;5051620;28;20509;-71
2021/11/08 03:03:41;;;;;;;18.80;8.00;;;10.30;99.90;;;;;;5052274;28;20054;-71
2021/11/08 03:06:45;;;;;;;12.32;6.65;;;10.40;99.90;;;;;;5051880;28;20056;-71
2021/11/08 03:09:57;;;;;;;11.68;6.32;;;10.40;99.90;;;;;;5051709;28;20395;-71
2021/11/08 03:13:10;;;;;;;11.70;7.03;;;10.40;99.90;;;;;;5051536;28;20032;-71
2021/11/08 03:16:23;;;;;;;18.52;6.47;;;10.40;99.90;;;;;;5052004;28;20044;-71
2021/11/08 03:22:35;;;;;;;12.70;5.68;;;10.60;99.90;;;;;;5052259;28;20048;-71
2021/11/08 03:25:47;;;;;;;16.98;7.95;;;10.60;99.90;;;;;;5051832;28;20044;-71
2021/11/08 03:28:52;;;;;;;12.15;6.20;;;10.60;99.90;;;;;;5051681;28;20079;-71
2021/11/08 03:31:56;;;;;;;15.35;7.90;;;10.50;99.90;;;;;;5051641;28;20052;-71
2021/11/08 03:35:02;;;;;;;12.32;6.40;;;10.40;99.90;;;;;;5051857;28;20051;-71
2021/11/08 03:38:09;;;;;;;9.88;5.35;;;10.40;99.90;;;;;;5051355;28;20395;-71
2021/11/08 03:41:13;;;;;;;13.75;6.70;;;10.50;99.90;;;;;;5051625;28;20043;-71
2021/11/08 03:44:17;;;;;;;12.65;6.82;;;10.50;99.90;;;;;;5051432;28;20052;-71
2021/11/08 03:47:21;;;;;;;14.82;6.00;;;10.40;99.90;;;;;;5051182;28;20059;-71
2021/11/08 03:50:27;;;;;;;14.05;6.30;;;10.30;99.90;;;;;;5051140;28;20407;-71
2021/11/08 03:53:32;;;;;;;10.80;6.97;;;10.30;99.90;;;;;;5051453;28;20479;-71
2021/11/08 03:56:36;;;;;;;13.32;8.38;;;10.20;99.90;;;;;;5051194;28;20391;-71
2021/11/08 03:59:40;;;;;;;13.07;7.80;;;10.20;99.90;;;;;;5051117;28;20060;-71
2021/11/08 04:02:44;;;;;;;13.15;7.03;;;10.10;99.90;;;;;;5051117;28;20052;-71
2021/11/08 04:05:49;;;;;;;10.57;6.68;;;10.00;99.90;;;;;;5050830;28;20032;-71
2021/11/08 04:08:53;;;;;;;13.35;7.70;;;10.00;99.90;;;;;;5050585;28;20052;-71
2021/11/08 04:11:57;;;;;;;21.73;8.48;;;10.00;99.90;;;;;;5050856;28;20391;-71
2021/11/08 04:15:06;;;;;;;19.63;7.30;;;9.90;99.90;;;;;;5051476;28;20048;-71
2021/11/08 04:18:16;;;;;;;16.08;8.05;;;9.90;99.90;;;;;;5050906;28;20052;-71
2021/11/08 04:21:22;;;;;;;16.95;9.23;;;9.90;99.90;;;;;;5050658;28;20051;-71
2021/11/08 04:24:26;;;;;;;17.65;9.15;;;9.90;99.90;;;;;;5050129;28;20060;-71
2021/11/08 04:27:35;;;;;;;14.25;8.27;;;9.90;99.90;;;;;;5051063;28;20052;-71
2021/11/08 04:30:44;;;;;;;15.60;9.57;;;9.80;99.90;;;;;;5050821;28;20044;-71
2021/11/08 04:33:51;;;;;;;17.00;10.13;;;9.80;99.90;;;;;;5050645;28;20483;-71
2021/11/08 04:40:16;;;;;;;17.67;9.38;;;9.60;99.90;;;;;;5050028;28;20048;-71
2021/11/08 04:43:44;;;;;;;17.48;9.80;;;9.50;99.90;;;;;;5049843;28;20394;-71
2021/11/08 04:47:00;;;;;;;18.33;9.48;;;9.50;99.90;;;;;;5050077;28;20048;-71
2021/11/08 04:50:24;;;;;;;17.25;8.75;;;9.40;99.90;;;;;;5050160;28;20052;-71
2021/11/08 05:30:09;;;;;;;21.15;12.15;;;9.20;99.90;;;;;;5049524;28;20052;-71
2021/11/08 05:33:14;;;;;;;24.67;11.10;;;9.20;99.90;;;;;;5050070;28;20131;-71
2021/11/08 05:36:18;;;;;;;16.73;10.13;;;9.20;99.90;;;;;;5051612;28;20044;-71
2021/11/08 05:39:22;;;;;;;20.77;11.65;;;9.10;99.90;;;;;;5054129;28;20048;-71
2021/11/08 05:42:27;;;;;;;31.33;13.10;;;9.00;99.90;;;;;;5054406;28;20490;-71
2021/11/08 05:45:33;;;;;;;21.40;12.95;;;8.90;99.90;;;;;;5053604;28;20143;-71
2021/11/08 05:48:37;;;;;;;101.20;16.15;;;8.80;99.90;;;;;;5053690;28;20056;-72
2021/11/08 05:51:41;;;;;;;32.03;13.18;;;8.80;99.90;;;;;;5053711;28;20063;-71
2021/11/08 05:54:46;;;;;;;26.23;12.60;;;8.80;99.90;;;;;;5053824;28;20231;-71
2021/11/08 05:58:11;;;;;;;29.65;15.00;;;8.80;99.90;;;;;;5054061;28;20044;-71
2021/11/08 06:51:56;;;;;;;;;;;12.00;99.90;;;;;;5072748;28;20354;-71
2021/11/08 06:55:04;;;;;;;19.45;9.13;;;11.70;99.90;;;;;;5070678;28;19908;-71
2021/11/08 06:58:15;;;;;;;14.90;8.38;;;11.60;99.90;;;;;;5071960;28;20048;-71
2021/11/08 07:01:19;;;;;;;13.25;8.65;;;11.50;99.90;;;;;;5071540;28;20617;-72
2021/11/08 07:04:25;;;;;;;17.40;9.02;;;11.60;99.90;;;;;;5071093;28;20047;-71
2021/11/08 07:07:29;;;;;;;16.63;8.25;;;11.70;99.90;;;;;;5071332;28;20039;-72
2021/11/08 07:10:33;;;;;;;13.75;8.82;;;12.00;99.90;;;;;;5063564;28;20063;-71
2021/11/08 07:13:37;;;;;;;14.25;8.40;;;12.30;99.90;;;;;;5054555;28;20043;-71
2021/11/08 07:16:44;;;;;;;18.77;8.60;;;13.20;99.90;;;;;;5068995;28;20431;-72
2021/11/08 07:19:48;;;;;;;14.55;6.25;;;15.30;99.90;;;;;;5060776;28;20048;-72
2021/11/08 07:22:53;;;;;;;12.15;6.45;;;18.00;99.90;;;;;;5061556;28;20048;-72
2021/11/08 07:25:58;;;;;;;13.13;7.25;;;20.60;99.90;;;;;;5056930;28;20048;-72
2021/11/08 07:29:04;;;;;;;11.52;6.50;;;21.40;99.90;;;;;;5060399;28;20297;-72
2021/11/08 07:32:08;;;;;;;7.63;5.15;;;22.50;99.90;;;;;;5062521;28;20027;-72
2021/11/08 07:35:13;;;;;;;6.15;4.88;;;23.40;99.90;;;;;;5071521;28;20043;-72
2021/11/08 07:38:17;;;;;;;5.38;4.13;;;24.80;99.90;;;;;;5062588;28;20052;-73
2021/11/08 07:41:21;;;;;;;6.88;3.80;;;25.70;97.90;;;;;;5059237;28;20039;-73
2021/11/08 07:44:26;;;;;;;7.25;4.03;;;26.60;95.30;;;;;;5055229;28;20290;-72
2021/11/08 07:47:30;;;;;;;9.30;4.35;;;26.60;93.80;;;;;;5053240;28;20040;-72
2021/11/08 07:50:34;;;;;;;7.65;3.90;;;25.70;93.60;;;;;;5061245;28;20039;-72
2021/11/08 07:53:39;;;;;;;8.98;3.50;;;25.20;94.30;;;;;;5065738;28;20036;-72
2021/11/08 07:56:47;;;;;;;5.82;3.53;;;25.90;93.80;;;;;;5059824;28;20040;-72
2021/11/08 07:59:51;;;;;;;9.93;3.80;;;26.90;93.10;;;;;;5057935;28;20048;-73
2021/11/08 08:02:56;;;;;;;7.40;3.92;;;27.00;92.80;;;;;;5065908;28;20043;-73
2021/11/08 08:06:02;;;;;;;8.32;4.30;;;27.90;92.60;;;;;;5068591;28;20067;-73
2021/11/08 08:09:07;;;;;;;6.13;3.83;;;28.30;92.50;;;;;;5069773;28;20056;-72
2021/11/08 08:12:11;;;;;;;7.68;3.88;;;29.00;90.90;;;;;;5056207;28;20324;-73
2021/11/08 08:15:16;;;;;;;5.90;3.97;;;29.00;91.40;;;;;;5057470;28;20044;-73
2021/11/08 08:18:21;;;;;;;7.03;3.30;;;29.40;90.10;;;;;;5063607;28;20048;-72
2021/11/08 08:21:25;;;;;;;7.90;3.92;;;30.40;88.00;;;;;;5070779;28;20060;-73
2021/11/08 08:24:30;;;;;;;6.95;3.60;;;29.40;84.90;;;;;;5059614;28;20060;-72
2021/11/08 08:27:34;;;;;;;5.65;3.70;;;25.60;90.80;;;;;;5068181;28;20382;-73
2021/11/08 08:30:39;;;;;;;6.53;3.70;;;25.30;91.90;;;;;;5070453;28;20047;-73
2021/11/08 08:33:44;;;;;;;6.95;3.78;;;27.10;89.90;;;;;;5066220;28;20474;-73
2021/11/08 08:36:49;;;;;;;5.70;3.30;;;28.70;88.00;;;;;;5049900;28;20040;-73
2021/11/08 08:39:53;;;;;;;6.35;2.85;;;30.70;86.00;;;;;;5062403;28;20051;-73
2021/11/08 08:42:57;;;;;;;5.43;3.00;;;32.40;84.00;;;;;;5068015;28;20051;-73
2021/11/08 08:46:01;;;;;;;7.10;3.63;;;32.20;80.50;;;;;;5068855;28;20047;-73
2021/11/08 08:49:05;;;;;;;6.13;3.20;;;32.90;80.80;;;;;;5069985;28;20043;-73
2021/11/08 08:52:10;;;;;;;6.78;2.72;;;34.20;79.90;;;;;;5063917;28;20052;-73
2021/11/08 08:55:15;;;;;;;4.38;2.40;;;34.90;78.20;;;;;;5069704;28;20055;-73
2021/11/08 08:58:19;;;;;;;5.97;2.75;;;35.70;74.50;;;;;;5069615;28;20055;-73
2021/11/08 09:01:25;;;;;;;7.60;3.15;;;35.60;73.60;;;;;;5063643;28;20059;-73
2021/11/08 09:04:30;;;;;;;10.52;3.15;;;36.20;72.20;;;;;;5068980;28;20035;-73
2021/11/08 09:07:35;;;;;;;6.22;2.75;;;35.90;71.50;;;;;;5068880;28;20390;-73
2021/11/08 09:10:40;;;;;;;5.88;2.60;;;35.60;73.00;;;;;;5068967;28;20036;-73
2021/11/08 09:13:45;;;;;;;7.78;2.97;;;36.30;71.50;;;;;;5068759;28;20055;-73
2021/11/08 09:16:49;;;;;;;10.35;3.58;;;36.80;70.10;;;;;;5066850;28;20040;-73
2021/11/08 09:19:54;;;;;;;10.82;3.10;;;36.80;68.10;;;;;;5068605;28;20056;-73
2021/11/08 09:22:58;;;;;;;10.73;3.00;;;34.80;72.30;;;;;;5056018;28;20048;-73
2021/11/08 09:26:03;;;;;;;8.32;2.88;;;36.10;69.90;;;;;;5061776;28;20055;-73
2021/11/08 09:29:07;;;;;;;7.13;2.33;;;37.20;68.80;;;;;;5067510;28;20051;-73
2021/11/08 09:32:11;;;;;;;8.32;2.70;;;38.10;69.00;;;;;;5068857;28;20399;-73
2021/11/08 09:35:16;;;;;;;5.90;2.67;;;38.50;67.40;;;;;;5062342;28;20055;-73
2021/11/08 09:38:21;;;;;;;6.03;2.78;;;38.90;66.40;;;;;;5059112;28;20048;-73
2021/11/08 09:41:30;;;;;;;5.80;2.58;;;38.80;65.60;;;;;;5061956;28;20036;-74
2021/11/08 09:44:35;;;;;;;7.30;2.50;;;39.60;65.30;;;;;;5069997;28;20055;-74
2021/11/08 09:47:41;;;;;;;8.45;3.03;;;39.50;63.90;;;;;;5062808;28;20819;-73
2021/11/08 09:50:49;;;;;;;4.70;2.53;;;39.40;64.00;;;;;;5059848;28;20051;-73
2021/11/08 09:53:56;;;;;;;4.45;2.47;;;39.20;64.30;;;;;;5060473;28;20039;-73
2021/11/08 09:57:02;;;;;;;5.68;2.67;;;39.40;64.00;;;;;;5063150;28;20035;-73
2021/11/08 10:00:22;;;;;;;5.13;2.20;;;39.60;64.00;;;;;;5061429;28;20051;-73
2021/11/08 10:03:28;;;;;;;;;;;39.30;64.30;;;;;;5063675;28;20040;-73
2021/11/08 10:06:32;;;;;;;7.72;2.60;;;39.80;62.60;;;;;;5066221;28;19908;-73
2021/11/08 10:09:37;;;;;;;7.93;2.30;;;40.60;62.80;;;;;;5069308;28;20055;-73
2021/11/08 10:12:42;;;;;;;6.65;2.53;;;39.80;62.40;;;;;;5063472;28;20048;-73
2021/11/08 10:15:48;;;;;;;6.43;2.55;;;39.50;62.50;;;;;;5068019;28;20067;-74
2021/11/08 10:18:57;;;;;;;8.65;2.20;;;39.50;63.40;;;;;;5065887;28;20052;-73
2021/11/08 10:22:05;;;;;;;6.00;2.53;;;39.60;63.20;;;;;;5063050;28;20047;-73
2021/11/08 10:25:14;;;;;;;6.80;2.22;;;39.60;61.50;;;;;;5067010;28;20047;-73
2021/11/08 10:28:20;;;;;;;;;;;39.30;61.50;;;;;;5068239;28;20044;-73
2021/11/08 10:31:31;;;;;;;6.85;2.33;;;39.80;62.70;;;;;;5072532;28;19909;-72
2021/11/08 10:34:46;;;;;;;8.75;2.45;;;40.10;61.30;;;;;;5070639;28;20047;-73
2021/11/08 10:37:50;;;;;;;5.13;2.28;;;40.30;60.60;;;;;;5072943;28;20052;-73
2021/11/08 10:41:07;;;;;;;7.95;2.50;;;40.10;61.00;;;;;;5072341;28;20043;-74
2021/11/08 10:44:21;;;;;;;8.02;2.40;;;40.20;60.60;;;;;;5068999;28;20039;-74
2021/11/08 10:47:28;;;;;;;5.43;2.33;;;39.70;60.60;;;;;;5057159;28;20502;-73
2021/11/08 10:50:42;;;;;;;5.13;2.13;;;39.80;61.30;;;;;;5072615;28;20477;-73
2021/11/08 10:53:56;;;;;;;5.35;2.63;;;39.50;61.50;;;;;;5050714;28;20055;-73
2021/11/08 10:57:07;;;;;;;7.45;2.47;;;39.80;61.30;;;;;;5060270;28;20521;-73
2021/11/08 11:00:13;;;;;;;8.55;2.53;;;40.00;60.90;;;;;;5071723;28;20048;-74
2021/11/08 11:03:19;;;;;;;8.00;2.13;;;40.40;60.80;;;;;;5072290;28;20047;-73
2021/11/08 11:06:54;;;;;;;6.05;2.28;;;39.90;60.90;;;;;;5067621;28;20032;-74
2021/11/08 11:10:10;;;;;;;5.32;2.00;;;39.90;60.60;;;;;;5055232;28;20060;-74
2021/11/08 11:13:23;;;;;;;8.70;2.30;;;40.10;59.90;;;;;;5071662;28;20051;-74
2021/11/08 11:16:53;;;;;;;5.45;1.75;;;39.50;59.50;;;;;;5051701;28;20116;-74
2021/11/08 11:20:11;;;;;;;4.25;1.60;;;40.30;59.90;;;;;;5063062;28;20051;-73
2021/11/08 11:23:24;;;;;;;4.45;1.40;;;41.00;58.30;;;;;;5052117;28;20048;-73
2021/11/08 11:26:30;;;;;;;2.47;1.08;;;40.70;58.50;;;;;;5051931;28;20040;-73
2021/11/08 11:29:35;;;;;;;4.18;1.35;;;41.20;58.40;;;;;;5058973;28;20498;-73
2021/11/08 11:32:39;;;;;;;3.47;1.33;;;41.10;57.80;;;;;;5062347;28;20048;-73
2021/11/08 11:36:06;;;;;;;5.32;1.50;;;40.90;58.20;;;;;;5062285;28;20079;-73
2021/11/08 11:39:16;;;;;;;4.13;1.70;;;37.60;59.50;;;;;;5071021;28;20043;-72
2021/11/08 11:42:20;;;;;;;7.65;3.05;;;34.00;62.60;;;;;;5071073;28;20063;-73
2021/11/08 11:45:25;;;;;;;4.25;2.20;;;31.30;65.90;;;;;;5072389;28;20383;-72
2021/11/08 11:48:31;;;;;;;5.53;2.03;;;31.20;66.80;;;;;;5061858;28;20048;-72
2021/11/08 11:51:40;;;;;;;4.53;1.80;;;32.90;64.80;;;;;;5070900;28;20048;-72
2021/11/08 11:54:44;;;;;;;4.78;1.67;;;34.70;63.10;;;;;;5067713;28;20052;-73
2021/11/08 11:57:48;;;;;;;8.63;1.70;;;36.00;61.30;;;;;;5070648;28;20051;-73
2021/11/08 12:00:58;;;;;;;4.18;2.13;;;37.30;60.30;;;;;;5068691;28;20047;-73
2021/11/08 12:04:03;;;;;;;4.55;1.50;;;37.50;59.80;;;;;;5069365;28;20041;-73
2021/11/08 12:07:10;;;;;;;3.40;1.40;;;37.60;59.40;;;;;;5058523;28;20481;-72
2021/11/08 12:10:15;;;;;;;5.75;1.65;;;37.70;59.90;;;;;;5063076;28;20055;-73
2021/11/08 12:13:22;;;;;;;3.55;1.45;;;36.50;60.50;;;;;;5062449;28;20064;-72
2021/11/08 12:16:28;;;;;;;3.40;1.30;;;36.60;60.60;;;;;;5049901;28;20048;-73
2021/11/08 12:19:39;;;;;;;4.75;1.33;;;37.00;59.40;;;;;;5050230;28;20044;-73
2021/11/08 12:22:44;;;;;;;3.35;1.50;;;36.00;60.20;;;;;;5067596;28;20047;-72
2021/11/08 12:25:50;;;;;;;6.32;1.50;;;34.90;61.70;;;;;;5069663;28;20051;-72
2021/11/08 12:29:10;;;;;;;7.25;2.10;;;32.60;63.20;;;;;;5063445;28;20044;-72
2021/11/08 12:32:14;;;;;;;4.90;2.03;;;30.90;65.00;;;;;;5064708;28;20043;-72
2021/11/08 12:35:39;;;;;;;3.33;1.75;;;29.60;67.40;;;;;;5055370;28;20055;-72
2021/11/08 12:39:04;;;;;;;5.53;2.08;;;28.70;68.50;;;;;;5062269;28;20056;-72
2021/11/08 12:42:12;;;;;;;3.60;1.80;;;27.20;71.50;;;;;;5059524;28;20099;-72
2021/11/08 12:45:28;;;;;;;3.30;1.60;;;25.90;74.20;;;;;;5058031;28;20043;-72
2021/11/08 12:48:33;;;;;;;4.75;1.70;;;27.00;73.50;;;;;;5063950;28;20044;-73
2021/11/08 12:51:39;;;;;;;3.92;1.40;;;29.30;70.10;;;;;;5062847;28;20036;-73
2021/11/08 12:54:48;;;;;;;2.85;1.65;;;31.00;67.30;;;;;;5070266;28;20514;-73
2021/11/08 12:57:55;;;;;;;5.47;1.50;;;31.50;66.70;;;;;;5054827;28;20048;-73
2021/11/08 13:01:00;;;;;;;3.95;1.50;;;32.60;66.20;;;;;;5057745;28;20048;-73
2021/11/08 13:04:09;;;;;;;6.78;1.33;;;33.30;64.60;;;;;;5058955;28;20048;-73
2021/11/08 13:07:16;;;;;;;2.53;0.88;;;34.00;63.60;;;;;;5064139;28;20052;-73
2021/11/08 13:10:29;;;;;;;2.85;1.35;;;34.00;63.40;;;;;;5059349;28;20039;-72
2021/11/08 13:13:33;;;;;;;2.92;1.17;;;32.90;64.90;;;;;;5061408;28;20039;-72
2021/11/08 13:16:41;;;;;;;5.38;1.30;;;32.40;64.90;;;;;;5059634;28;20502;-73
2021/11/08 13:19:56;;;;;;;2.75;1.20;;;32.70;64.70;;;;;;5062174;28;20051;-73
2021/11/08 13:23:11;;;;;;;3.85;1.60;;;32.70;64.50;;;;;;5061943;28;20036;-73
2021/11/08 13:26:15;;;;;;;3.75;1.27;;;33.10;65.50;;;;;;5061477;28;20663;-73
2021/11/08 13:29:21;;;;;;;1.38;0.80;;;33.50;63.90;;;;;;5054656;28;20506;-73
2021/11/08 13:32:28;;;;;;;3.38;1.10;;;33.20;64.30;;;;;;5049857;28;20277;-73
2021/11/08 13:35:34;;;;;;;3.75;0.70;;;33.40;63.90;;;;;;5053417;28;20119;-73
2021/11/08 13:38:41;;;;;;;6.45;0.95;;;33.80;63.60;;;;;;5061445;28;20043;-73
2021/11/08 13:41:46;;;;;;;4.25;0.90;;;33.80;63.60;;;;;;5056624;28;20426;-73
2021/11/08 13:44:52;;;;;;;1.52;0.88;;;33.00;63.70;;;;;;5070453;28;20502;-73
2021/11/08 13:47:56;;;;;;;1.23;0.57;;;32.40;65.20;;;;;;5059800;28;20060;-73
2021/11/08 13:51:04;;;;;;;1.88;0.90;;;31.20;65.80;;;;;;5061652;28;20044;-72
2021/11/08 13:54:11;;;;;;;1.88;0.95;;;29.80;68.70;;;;;;5066317;28;20055;-73
2021/11/08 13:57:16;;;;;;;4.03;0.82;;;29.90;68.50;;;;;;5070464;28;20047;-73
2021/11/08 14:00:20;;;;;;;7.68;1.10;;;30.50;67.30;;;;;;5072600;28;20394;-73
2021/11/08 14:03:24;;;;;;;2.67;1.27;;;30.30;66.60;;;;;;5061571;28;20052;-72
2021/11/08 14:06:34;;;;;;;3.53;2.20;;;29.50;67.60;;;;;;5056160;28;20044;-73
2021/11/08 14:09:41;;;;;;;10.35;2.25;;;27.20;69.10;;;;;;5071593;28;20044;-72
2021/11/08 14:12:46;;;;;;;8.65;2.00;;;26.10;70.80;;;;;;5058125;28;20039;-71
2021/11/08 14:15:58;;;;;;;9.95;2.30;;;24.50;72.80;;;;;;5072669;28;20059;-72
2021/11/08 14:19:03;;;;;;;7.75;2.83;;;22.90;76.30;;;;;;5065729;28;20040;-71
2021/11/08 14:22:08;;;;;;;6.97;2.58;;;21.40;79.50;;;;;;5069396;28;20051;-70
2021/11/08 14:25:13;;;;;;;6.70;2.25;;;20.40;82.30;;;;;;5072778;28;20051;-72
2021/11/08 14:28:25;;;;;;;5.85;2.10;;;20.00;84.20;;;;;;5072125;28;20032;-71
2021/11/08 14:31:32;;;;;;;3.97;2.20;;;19.60;85.00;;;;;;5073664;28;20056;-72
2021/11/08 14:34:45;;;;;;;7.30;1.73;;;19.40;85.40;;;;;;5072973;28;20502;-71
2021/11/08 14:38:12;;;;;;;6.43;2.40;;;19.20;86.30;;;;;;5073355;28;20051;-71
2021/11/08 14:41:17;;;;;;;8.90;1.77;;;19.90;84.60;;;;;;5072593;28;20059;-72
2021/11/08 14:44:22;;;;;;;5.20;1.90;;;20.20;84.40;;;;;;5072546;28;20044;-72
2021/11/08 14:47:29;;;;;;;3.03;1.42;;;21.20;82.20;;;;;;5072842;28;20100;-72
2021/11/08 14:50:36;;;;;;;4.18;1.50;;;21.50;81.30;;;;;;5072361;28;20103;-70
2021/11/08 14:54:00;;;;;;;4.78;1.70;;;20.90;82.00;;;;;;5072490;28;20047;-71
2021/11/08 14:57:06;;;;;;;5.03;1.90;;;20.70;82.40;;;;;;5072435;28;20063;-70
2021/11/08 15:00:24;;;;;;;7.45;1.83;;;20.30;83.70;;;;;;5071574;28;20047;-70
2021/11/08 15:03:28;;;;;;;3.38;1.67;;;20.20;84.70;;;;;;5071538;28;20043;-72
2021/11/08 15:06:33;;;;;;;4.15;1.45;;;20.00;85.00;;;;;;5072200;28;20051;-71
2021/11/08 15:09:40;;;;;;;4.72;1.55;;;19.70;85.50;;;;;;5070660;28;20130;-72
2021/11/08 15:12:46;;;;;;;7.07;1.83;;;19.80;86.10;;;;;;5070942;28;20044;-73
2021/11/08 15:15:51;;;;;;;5.10;1.80;;;19.70;85.40;;;;;;5070946;28;20050;-72
2021/11/08 15:19:03;;;;;;;4.80;2.17;;;19.60;86.30;;;;;;5071883;28;20050;-72
2021/11/08 15:22:07;;;;;;;4.88;1.38;;;19.60;87.80;;;;;;5072119;28;20040;-71
2021/11/08 15:25:35;;;;;;;3.30;1.45;;;19.40;86.90;;;;;;5070915;28;20044;-72
2021/11/08 15:28:42;;;;;;;2.65;1.80;;;18.70;89.10;;;;;;5071626;28;20039;-72
2021/11/08 15:31:46;;;;;;;2.97;1.60;;;18.30;90.10;;;;;;5072159;28;20043;-71
2021/11/08 15:34:50;;;;;;;5.57;1.02;;;18.00;90.50;;;;;;5072047;28;20367;-72
2021/11/08 15:37:55;;;;;;;4.30;1.23;;;17.70;90.80;;;;;;5070969;28;20040;-71
2021/11/08 15:41:02;;;;;;;5.63;1.90;;;17.00;91.90;;;;;;5071601;28;20048;-71
2021/11/08 15:44:07;;;;;;;1.35;0.90;;;16.60;92.80;;;;;;5071596;28;20039;-71
2021/11/08 15:47:11;;;;;;;1.92;1.20;;;16.30;93.30;;;;;;5071735;28;20432;-71
2021/11/08 15:50:15;;;;;;;2.75;1.70;;;16.00;94.30;;;;;;5071297;28;20134;-72
2021/11/08 15:53:19;;;;;;;3.72;1.42;;;15.90;94.70;;;;;;5071815;28;20051;-71
2021/11/08 15:56:23;;;;;;;2.55;0.90;;;15.90;94.40;;;;;;5071519;28;20375;-71
2021/11/08 15:59:27;;;;;;;3.05;1.30;;;15.80;94.30;;;;;;5071012;28;20106;-72
2021/11/08 16:02:36;;;;;;;2.83;1.40;;;15.80;94.90;;;;;;5071223;28;20051;-73
2021/11/08 16:05:41;;;;;;;4.25;1.30;;;15.70;95.20;;;;;;5069982;28;20052;-72
2021/11/08 16:08:45;;;;;;;2.60;1.35;;;15.70;95.60;;;;;;5070468;28;20039;-72
2021/11/08 16:11:49;;;;;;;3.55;1.60;;;15.70;95.60;;;;;;5071176;28;20044;-72
2021/11/08 16:14:53;;;;;;;2.42;1.30;;;15.80;95.60;;;;;;5070218;28;20051;-72
2021/11/08 16:17:57;;;;;;;2.67;1.00;;;15.60;96.30;;;;;;5070872;28;20039;-72
2021/11/08 16:21:01;;;;;;;2.95;1.65;;;15.60;96.70;;;;;;5070817;28;20038;-72
2021/11/08 16:24:06;;;;;;;4.38;1.38;;;15.40;97.10;;;;;;5071068;28;20056;-71
2021/11/08 16:27:10;;;;;;;2.25;1.00;;;15.50;97.40;;;;;;5070949;28;20043;-74
2021/11/08 16:30:17;;;;;;;1.70;1.25;;;15.40;97.50;;;;;;5070551;28;20486;-73
2021/11/08 16:33:25;;;;;;;4.40;2.92;;;15.30;98.40;;;;;;5070646;28;20504;-73
2021/11/08 16:36:29;;;;;;;5.63;1.20;;;15.00;99.70;;;;;;5070666;28;20406;-72
2021/11/08 16:39:33;;;;;;;2.08;0.93;;;14.90;99.90;;;;;;5070139;28;20047;-73
2021/11/08 16:42:38;;;;;;;1.70;0.98;;;14.70;99.90;;;;;;5071231;28;20051;-72
2021/11/08 16:45:48;;;;;;;2.65;1.00;;;14.60;99.90;;;;;;5070750;28;20036;-72
2021/11/08 16:48:53;;;;;;;1.60;0.75;;;14.50;99.90;;;;;;5070215;28;20044;-72
2021/11/08 16:52:05;;;;;;;4.18;2.65;;;14.40;99.90;;;;;;5070929;28;20506;-72
2021/11/08 16:55:10;;;;;;;3.10;2.00;;;14.40;99.90;;;;;;5070110;28;20040;-72
2021/11/08 16:58:17;;;;;;;2.85;1.42;;;14.40;99.90;;;;;;5070041;28;20048;-71
2021/11/08 17:01:21;;;;;;;1.20;0.80;;;14.30;99.90;;;;;;5070205;28;20490;-72
2021/11/08 17:04:28;;;;;;;1.38;0.80;;;14.10;99.90;;;;;;5070118;28;20048;-73
2021/11/08 17:07:33;;;;;;;3.22;1.65;;;14.20;99.90;;;;;;5070330;28;20048;-72
2021/11/08 17:13:46;;;;;;;4.45;1.73;;;14.50;99.90;;;;;;5070349;28;20036;-71
2021/11/08 17:16:50;;;;;;;1.52;0.80;;;14.70;99.90;;;;;;5070064;28;20043;-71
2021/11/08 17:19:55;;;;;;;3.15;1.20;;;14.80;99.90;;;;;;5068762;28;20043;-72
2021/11/08 17:22:59;;;;;;;1.65;0.80;;;14.70;99.90;;;;;;5070330;28;20036;-72
2021/11/08 17:26:05;;;;;;;7.65;3.75;;;14.50;99.90;;;;;;5069787;28;20032;-72
2021/11/08 17:29:09;;;;;;;2.28;1.48;;;14.40;99.90;;;;;;5069570;28;20063;-72
2021/11/08 17:32:14;;;;;;;0.63;0.47;;;14.20;99.90;;;;;;5071667;28;20056;-73
2021/11/08 17:35:18;;;;;;;2.10;0.70;;;14.10;99.90;;;;;;5073765;28;20056;-72
2021/11/08 17:38:22;;;;;;;0.85;0.60;;;13.90;99.90;;;;;;5073547;28;20043;-72
2021/11/08 17:41:26;;;;;;;1.92;1.00;;;13.80;99.90;;;;;;5073542;28;20047;-72
2021/11/08 17:44:30;;;;;;;3.50;2.35;;;13.80;99.90;;;;;;5073704;28;20044;-72
2021/11/08 17:47:35;;;;;;;2.00;1.02;;;13.90;99.90;;;;;;5072815;28;20115;-72
2021/11/08 17:50:45;;;;;;;3.53;2.08;;;13.90;99.90;;;;;;5073486;28;20502;-71